Time;durP1;ratioP1;P1;durP2;ratioP2;P2;SDS_P1;SDS_P2;PMS_P1;PMS_P2;Temp;Humidity;BMP_temperature;BMP_pressure;BME280_temperature;BME280_humidity;BME280_pressure;Samples;Min_cycle;Max_cycle;Signal;HPM_P1;HPM_P2
2021/09/20 00:01:36;;;;;;;2.83;0.70;;;13.00;99.90;;;;;;5058714;28;20024;-76
2021/09/20 00:04:02;;;;;;;3.00;0.73;;;13.00;99.90;;;;;;5058612;28;20028;-76
2021/09/20 00:06:28;;;;;;;2.30;0.98;;;13.00;99.90;;;;;;5058703;28;20032;-75
2021/09/20 00:08:54;;;;;;;4.28;0.65;;;13.00;99.90;;;;;;5058727;28;20431;-75
2021/09/20 00:11:20;;;;;;;2.53;0.85;;;12.90;99.90;;;;;;5076786;28;20507;-75
2021/09/20 00:13:46;;;;;;;2.88;0.82;;;12.90;99.90;;;;;;5076292;28;20032;-75
2021/09/20 00:16:11;;;;;;;4.97;0.70;;;12.90;99.90;;;;;;5058487;28;20028;-75
2021/09/20 00:18:37;;;;;;;3.47;1.00;;;12.90;99.90;;;;;;5058472;28;20083;-74
2021/09/20 00:21:03;;;;;;;2.90;0.88;;;12.90;99.90;;;;;;5076352;28;20035;-75
2021/09/20 00:23:31;;;;;;;5.40;1.27;;;12.90;99.90;;;;;;5076210;28;20074;-76
2021/09/20 00:25:58;;;;;;;2.25;0.50;;;12.90;99.90;;;;;;5076900;28;20021;-75
2021/09/20 00:28:25;;;;;;;1.25;0.88;;;12.80;99.90;;;;;;5076180;28;20098;-74
2021/09/20 00:30:51;;;;;;;4.13;0.98;;;12.90;99.90;;;;;;5076116;28;20024;-74
2021/09/20 00:33:17;;;;;;;1.95;0.77;;;12.80;99.90;;;;;;5076109;28;20436;-76
2021/09/20 00:35:42;;;;;;;3.38;0.70;;;12.80;99.90;;;;;;5075940;28;20021;-76
2021/09/20 00:38:08;;;;;;;1.15;0.55;;;12.80;99.90;;;;;;5075997;28;20024;-75
2021/09/20 00:40:34;;;;;;;2.90;0.63;;;12.80;99.90;;;;;;5076562;28;20056;-76
2021/09/20 00:42:59;;;;;;;1.75;0.50;;;12.70;99.90;;;;;;5057872;28;20086;-75
2021/09/20 00:45:25;;;;;;;1.27;0.50;;;12.70;99.90;;;;;;5075896;28;20474;-74
2021/09/20 00:47:50;;;;;;;2.78;0.73;;;12.70;99.90;;;;;;5075935;28;20024;-75
2021/09/20 00:50:16;;;;;;;2.80;0.75;;;12.60;99.90;;;;;;5076011;28;20028;-76
2021/09/20 00:52:41;;;;;;;2.72;0.73;;;12.60;99.90;;;;;;5076230;28;20090;-77
2021/09/20 00:55:08;;;;;;;5.82;1.17;;;12.60;99.90;;;;;;5058528;28;20132;-74
2021/09/20 00:57:34;;;;;;;2.30;0.88;;;12.60;99.90;;;;;;5057771;28;20363;-77
2021/09/20 01:00:01;;;;;;;2.40;0.68;;;12.50;99.90;;;;;;5075941;28;20074;-74
2021/09/20 01:02:27;;;;;;;2.88;0.57;;;12.50;99.90;;;;;;5075094;28;20016;-77
2021/09/20 01:04:54;;;;;;;2.10;0.85;;;12.60;99.90;;;;;;5057675;28;20119;-76
2021/09/20 01:07:20;;;;;;;2.80;1.00;;;12.50;99.90;;;;;;5057493;28;20085;-75
2021/09/20 01:09:46;;;;;;;1.65;0.70;;;12.50;99.90;;;;;;5075971;28;20107;-75
2021/09/20 01:12:12;;;;;;;2.80;1.20;;;12.60;99.90;;;;;;5075386;28;20028;-74
2021/09/20 01:14:39;;;;;;;2.30;0.98;;;12.50;99.90;;;;;;5057248;28;20055;-75
2021/09/20 01:17:05;;;;;;;2.85;1.02;;;12.50;99.90;;;;;;5057345;28;20111;-75
2021/09/20 01:19:31;;;;;;;2.25;1.10;;;12.40;99.90;;;;;;5075803;28;20099;-75
2021/09/20 01:22:02;;;;;;;3.72;0.65;;;12.40;99.90;;;;;;5057225;28;20017;-76
2021/09/20 01:24:28;;;;;;;2.08;0.95;;;12.40;99.90;;;;;;5075442;28;20036;-75
2021/09/20 01:27:04;;;;;;;2.15;0.98;;;12.30;99.90;;;;;;5057202;28;20025;-75
2021/09/20 01:29:30;;;;;;;2.55;1.20;;;12.30;99.90;;;;;;5075153;28;20481;-75
2021/09/20 01:31:58;;;;;;;2.13;0.77;;;12.30;99.90;;;;;;5075056;28;20027;-75
2021/09/20 01:34:24;;;;;;;8.98;1.90;;;12.20;99.90;;;;;;5074904;28;20025;-76
2021/09/20 01:36:52;;;;;;;3.22;1.20;;;11.90;99.90;;;;;;5075006;28;20031;-76
2021/09/20 01:39:20;;;;;;;4.30;1.33;;;12.10;99.90;;;;;;5057114;28;20421;-75
2021/09/20 01:41:46;;;;;;;1.87;0.90;;;12.10;99.90;;;;;;5074941;28;20053;-75
2021/09/20 01:44:13;;;;;;;3.67;1.10;;;12.00;99.90;;;;;;5056817;28;20273;-75
2021/09/20 01:46:44;;;;;;;2.85;1.33;;;12.00;99.90;;;;;;5074995;28;20075;-77
2021/09/20 01:49:12;;;;;;;3.42;1.25;;;11.90;99.90;;;;;;5057133;28;20134;-75
2021/09/20 01:51:37;;;;;;;3.55;1.02;;;11.90;99.90;;;;;;5074625;28;20482;-76
2021/09/20 01:54:04;;;;;;;3.28;0.98;;;11.80;99.90;;;;;;5074458;28;20103;-76
2021/09/20 01:56:31;;;;;;;2.53;1.17;;;11.80;99.90;;;;;;5056586;28;20428;-76
2021/09/20 01:58:56;;;;;;;3.78;0.90;;;11.70;99.90;;;;;;5074943;28;20012;-76
2021/09/20 02:01:22;;;;;;;4.32;1.58;;;11.70;99.90;;;;;;5074642;28;20048;-76
2021/09/20 02:03:50;;;;;;;4.07;0.93;;;11.70;99.90;;;;;;5074456;28;20029;-76
2021/09/20 02:06:16;;;;;;;4.70;1.58;;;11.60;99.90;;;;;;5056426;28;20381;-76
2021/09/20 02:08:42;;;;;;;4.78;1.50;;;11.60;99.90;;;;;;5074209;28;20021;-76
2021/09/20 02:11:08;;;;;;;5.18;1.00;;;11.60;99.90;;;;;;5074149;28;20028;-76
2021/09/20 02:13:34;;;;;;;2.70;1.20;;;11.60;99.90;;;;;;5073769;28;20047;-76
2021/09/20 02:16:00;;;;;;;3.25;1.05;;;11.50;99.90;;;;;;5073360;28;20017;-75
2021/09/20 02:18:25;;;;;;;2.90;1.42;;;11.50;99.90;;;;;;5073835;28;20023;-76
2021/09/20 02:20:54;;;;;;;4.15;0.80;;;11.50;99.90;;;;;;5073851;28;20031;-76
2021/09/20 02:23:19;;;;;;;3.17;0.82;;;11.50;99.90;;;;;;5055052;28;20024;-75
2021/09/20 02:25:45;;;;;;;2.70;1.42;;;11.50;99.90;;;;;;5056121;28;20066;-76
2021/09/20 02:28:11;;;;;;;5.20;1.45;;;11.60;99.90;;;;;;5073988;28;20050;-76
2021/09/20 02:30:37;;;;;;;2.95;1.23;;;11.50;99.90;;;;;;5073426;28;20474;-76
2021/09/20 02:33:03;;;;;;;5.43;1.30;;;11.50;99.90;;;;;;5074888;28;20116;-77
2021/09/20 02:35:29;;;;;;;3.00;1.45;;;11.50;99.90;;;;;;5055646;28;20457;-76
2021/09/20 02:37:55;;;;;;;3.90;1.73;;;11.50;99.90;;;;;;5073945;28;20028;-77
2021/09/20 02:40:20;;;;;;;3.25;1.33;;;11.50;99.90;;;;;;5055886;28;20012;-76
2021/09/20 02:42:46;;;;;;;3.05;1.40;;;11.40;99.90;;;;;;5073637;28;20024;-75
2021/09/20 02:45:13;;;;;;;3.03;1.20;;;11.40;99.90;;;;;;5073652;28;20134;-76
2021/09/20 02:47:39;;;;;;;3.30;1.42;;;11.30;99.90;;;;;;5073645;28;20036;-75
2021/09/20 02:50:07;;;;;;;3.20;1.25;;;11.30;99.90;;;;;;5073569;28;20025;-75
2021/09/20 02:52:33;;;;;;;3.95;1.40;;;11.30;99.90;;;;;;5055398;28;20039;-75
2021/09/20 02:54:59;;;;;;;3.45;1.88;;;11.30;99.90;;;;;;5055087;28;20024;-77
2021/09/20 02:57:24;;;;;;;2.58;1.42;;;11.20;99.90;;;;;;5073764;28;20009;-75
2021/09/20 02:59:50;;;;;;;3.17;1.25;;;11.20;99.90;;;;;;5073328;28;20035;-76
2021/09/20 03:02:16;;;;;;;3.90;1.42;;;11.30;99.90;;;;;;5055436;28;20016;-74
2021/09/20 03:04:41;;;;;;;2.83;1.10;;;11.30;99.90;;;;;;5073182;28;20115;-75
2021/09/20 03:07:07;;;;;;;4.13;1.48;;;11.30;99.90;;;;;;5055329;28;20273;-75
2021/09/20 03:09:33;;;;;;;5.20;1.67;;;11.40;99.90;;;;;;5073329;28;20078;-77
2021/09/20 03:11:58;;;;;;;2.92;1.60;;;11.40;99.90;;;;;;5072959;28;20066;-77
2021/09/20 03:14:24;;;;;;;3.78;1.27;;;11.40;99.90;;;;;;5072831;28;20033;-75
2021/09/20 03:16:50;;;;;;;3.40;1.02;;;11.40;99.90;;;;;;5055134;28;20078;-76
2021/09/20 03:19:16;;;;;;;4.20;1.50;;;11.40;99.90;;;;;;5055365;28;20023;-76
2021/09/20 03:21:42;;;;;;;3.53;1.30;;;11.40;99.90;;;;;;5072933;28;20540;-75
2021/09/20 03:24:10;;;;;;;3.47;1.27;;;11.40;99.90;;;;;;5070342;28;20078;-75
2021/09/20 03:26:35;;;;;;;3.85;1.60;;;11.40;99.90;;;;;;5073190;28;20474;-75
2021/09/20 03:29:01;;;;;;;3.10;1.15;;;11.40;99.90;;;;;;5073181;28;20024;-76
2021/09/20 03:31:27;;;;;;;2.70;1.05;;;11.40;99.90;;;;;;5055045;28;20029;-76
2021/09/20 03:33:53;;;;;;;2.65;0.98;;;11.40;99.90;;;;;;5101701;22;20506;-76
2021/09/20 03:36:19;;;;;;;5.88;1.42;;;11.30;99.90;;;;;;5093206;28;20028;-75
2021/09/20 03:38:44;;;;;;;4.93;1.48;;;11.30;99.90;;;;;;5093204;28;20027;-76
2021/09/20 03:41:10;;;;;;;4.20;1.42;;;11.30;99.90;;;;;;5093360;28;20012;-76
2021/09/20 03:43:35;;;;;;;4.82;1.42;;;11.30;99.90;;;;;;5065292;28;20043;-74
2021/09/20 03:46:01;;;;;;;3.83;1.55;;;11.30;99.90;;;;;;5072950;28;20035;-74
2021/09/20 03:48:26;;;;;;;6.45;2.22;;;11.30;99.90;;;;;;5073157;28;20074;-74
2021/09/20 03:50:52;;;;;;;4.28;1.08;;;11.30;99.90;;;;;;5072987;28;20021;-76
2021/09/20 03:53:17;;;;;;;4.03;1.20;;;11.30;99.90;;;;;;5072876;28;20038;-76
2021/09/20 03:55:43;;;;;;;4.50;1.33;;;11.30;99.90;;;;;;5073161;28;20087;-75
2021/09/20 03:58:08;;;;;;;4.35;1.42;;;11.40;99.90;;;;;;5072982;28;20502;-75
2021/09/20 04:00:34;;;;;;;5.13;1.52;;;11.40;99.90;;;;;;5073319;28;20497;-75
2021/09/20 04:03:00;;;;;;;4.40;1.65;;;11.30;99.90;;;;;;5054962;28;20021;-74
2021/09/20 04:05:25;;;;;;;4.05;1.30;;;11.40;99.90;;;;;;5072858;28;20100;-76
2021/09/20 04:07:51;;;;;;;5.38;1.40;;;11.30;99.90;;;;;;5072781;28;20028;-74
2021/09/20 04:10:17;;;;;;;3.63;1.60;;;11.30;99.90;;;;;;5069288;22;20473;-73
2021/09/20 04:12:42;;;;;;;7.45;1.85;;;11.30;99.90;;;;;;5072677;28;20019;-75
2021/09/20 04:15:10;;;;;;;3.00;1.15;;;11.30;99.90;;;;;;5073208;28;20154;-75
2021/09/20 04:17:35;;;;;;;3.55;1.85;;;11.40;99.90;;;;;;5054768;28;20027;-75
2021/09/20 04:20:01;;;;;;;3.75;1.08;;;11.40;99.90;;;;;;5072721;28;20473;-75
2021/09/20 04:22:28;;;;;;;3.25;1.58;;;11.40;99.90;;;;;;5072668;28;20397;-76
2021/09/20 04:24:53;;;;;;;2.70;1.23;;;11.40;99.90;;;;;;5072838;28;20024;-75
2021/09/20 04:27:20;;;;;;;3.25;1.67;;;11.40;99.90;;;;;;5072511;28;20078;-74
2021/09/20 04:29:46;;;;;;;3.60;1.55;;;11.40;99.90;;;;;;5072587;28;20051;-75
2021/09/20 04:32:12;;;;;;;5.78;2.08;;;11.40;99.90;;;;;;5072898;28;20067;-73
2021/09/20 04:34:38;;;;;;;3.58;1.40;;;11.40;99.90;;;;;;5072556;28;20443;-75
2021/09/20 04:37:03;;;;;;;6.88;2.35;;;11.40;99.90;;;;;;5054316;28;20021;-74
2021/09/20 04:39:29;;;;;;;2.15;0.73;;;11.40;99.90;;;;;;5057855;28;20115;-74
2021/09/20 04:41:55;;;;;;;3.33;1.55;;;11.40;99.90;;;;;;5075381;28;20033;-74
2021/09/20 04:44:20;;;;;;;5.07;1.80;;;11.40;99.90;;;;;;5075793;28;20032;-74
2021/09/20 04:46:46;;;;;;;3.53;1.15;;;11.30;99.90;;;;;;5075896;28;20028;-73
2021/09/20 04:49:11;;;;;;;4.18;2.03;;;11.30;99.90;;;;;;5075889;28;20051;-74
2021/09/20 04:51:37;;;;;;;6.13;2.03;;;11.30;99.90;;;;;;5058043;28;20039;-75
2021/09/20 04:54:03;;;;;;;4.10;1.45;;;11.30;99.90;;;;;;5075403;28;20048;-75
2021/09/20 04:56:28;;;;;;;4.90;1.70;;;11.20;99.90;;;;;;5057813;28;20024;-74
2021/09/20 04:58:55;;;;;;;3.67;1.42;;;11.20;99.90;;;;;;5075771;28;20445;-75
2021/09/20 05:01:20;;;;;;;4.80;1.95;;;11.20;99.90;;;;;;5075530;28;20021;-74
2021/09/20 05:03:46;;;;;;;4.35;1.70;;;11.20;99.90;;;;;;5076032;28;20024;-74
2021/09/20 05:06:11;;;;;;;3.95;1.65;;;11.10;99.90;;;;;;5075579;28;20074;-75
2021/09/20 05:08:37;;;;;;;7.05;2.30;;;11.00;99.90;;;;;;5075586;28;20494;-75
2021/09/20 05:11:02;;;;;;;3.92;1.80;;;11.00;99.90;;;;;;5075441;28;20035;-75
2021/09/20 05:13:28;;;;;;;4.43;2.10;;;11.00;99.90;;;;;;5075349;28;20046;-75
2021/09/20 05:15:54;;;;;;;7.50;1.95;;;10.90;99.90;;;;;;5057368;28;20031;-75
2021/09/20 05:18:20;;;;;;;6.05;2.03;;;10.80;99.90;;;;;;5057308;28;20390;-75
2021/09/20 05:20:45;;;;;;;5.65;2.10;;;10.80;99.90;;;;;;5057388;28;20474;-75
2021/09/20 05:23:12;;;;;;;6.05;2.10;;;10.70;99.90;;;;;;5057293;28;20021;-74
2021/09/20 05:25:38;;;;;;;6.07;1.90;;;10.70;99.90;;;;;;5075335;28;20039;-74
2021/09/20 05:28:04;;;;;;;5.97;2.67;;;10.60;99.90;;;;;;5075735;28;20024;-74
2021/09/20 05:30:29;;;;;;;5.90;2.22;;;10.50;99.90;;;;;;5075696;28;20039;-73
2021/09/20 05:32:55;;;;;;;5.97;1.70;;;10.50;99.90;;;;;;5075508;28;20024;-74
2021/09/20 05:35:21;;;;;;;4.68;1.95;;;10.50;99.90;;;;;;5075012;28;20111;-75
2021/09/20 05:37:48;;;;;;;7.70;2.35;;;10.40;99.90;;;;;;5074910;28;20025;-74
2021/09/20 05:40:15;;;;;;;10.45;2.88;;;10.40;99.90;;;;;;5075465;28;20051;-73
2021/09/20 05:42:42;;;;;;;7.20;2.55;;;10.40;99.90;;;;;;5074795;28;20021;-73
2021/09/20 05:45:08;;;;;;;5.40;2.85;;;10.40;99.90;;;;;;5074770;28;20020;-73
2021/09/20 05:47:34;;;;;;;6.38;2.45;;;10.40;99.90;;;;;;5056687;28;20028;-73
2021/09/20 05:49:59;;;;;;;6.93;2.80;;;10.40;99.90;;;;;;5074640;28;20496;-73
2021/09/20 05:52:25;;;;;;;6.72;3.00;;;10.40;99.90;;;;;;5075179;28;20032;-73
2021/09/20 05:54:51;;;;;;;7.50;2.28;;;10.40;99.90;;;;;;5074457;28;20067;-73
2021/09/20 05:57:17;;;;;;;4.30;2.40;;;10.40;99.90;;;;;;5056693;28;20020;-76
2021/09/20 05:59:43;;;;;;;8.45;3.10;;;10.50;99.90;;;;;;5074695;28;20036;-74
2021/09/20 06:02:09;;;;;;;5.60;2.50;;;10.50;99.90;;;;;;5056436;28;20063;-76
2021/09/20 06:04:34;;;;;;;7.50;2.45;;;10.60;99.90;;;;;;5074584;28;20052;-76
2021/09/20 06:07:00;;;;;;;5.30;2.63;;;10.60;99.90;;;;;;5074546;28;20563;-76
2021/09/20 06:09:25;;;;;;;6.30;2.92;;;10.60;99.90;;;;;;5074344;28;20031;-73
2021/09/20 06:11:51;;;;;;;5.65;2.88;;;10.70;99.90;;;;;;5074636;28;20378;-72
2021/09/20 06:14:17;;;;;;;7.10;2.75;;;10.70;99.90;;;;;;5073910;28;20037;-72
2021/09/20 06:16:42;;;;;;;9.02;3.30;;;10.70;99.90;;;;;;5056395;28;20027;-76
2021/09/20 06:19:08;;;;;;;7.00;2.83;;;10.80;99.90;;;;;;5056204;28;20021;-76
2021/09/20 06:21:34;;;;;;;11.20;3.58;;;10.80;99.90;;;;;;5074253;28;20085;-77
2021/09/20 06:23:59;;;;;;;8.80;2.75;;;10.80;99.90;;;;;;5074433;28;20021;-77
2021/09/20 06:26:25;;;;;;;7.03;2.97;;;10.80;99.90;;;;;;5076536;28;20031;-77
2021/09/20 06:28:51;;;;;;;7.55;3.30;;;10.90;99.90;;;;;;5074203;28;20024;-76
2021/09/20 06:31:17;;;;;;;10.00;3.20;;;11.00;99.90;;;;;;5074905;28;20028;-79
2021/09/20 06:33:43;;;;;;;7.68;2.92;;;11.00;99.90;;;;;;5074493;28;20024;-78
2021/09/20 06:36:09;;;;;;;8.35;3.28;;;11.10;99.90;;;;;;5059101;28;20036;-78
2021/09/20 06:38:34;;;;;;;6.18;2.42;;;11.20;99.90;;;;;;5055149;28;20021;-76
2021/09/20 06:41:00;;;;;;;8.35;3.08;;;11.20;99.90;;;;;;5071524;28;20047;-78
2021/09/20 06:43:26;;;;;;;9.45;2.53;;;11.30;99.90;;;;;;5073722;28;20032;-77
2021/09/20 06:45:52;;;;;;;5.50;2.65;;;11.40;99.90;;;;;;5073778;28;20020;-77
2021/09/20 06:48:19;;;;;;;7.13;3.17;;;11.40;99.90;;;;;;5074433;28;20052;-78
2021/09/20 06:50:44;;;;;;;6.28;2.92;;;11.40;99.90;;;;;;5073374;28;20024;-76
2021/09/20 06:53:10;;;;;;;9.88;3.10;;;11.40;99.90;;;;;;5055041;28;20077;-76
2021/09/20 06:55:35;;;;;;;10.07;3.20;;;11.50;99.90;;;;;;5055633;28;20031;-77
2021/09/20 06:58:01;;;;;;;6.90;2.33;;;11.60;99.90;;;;;;5054732;28;20082;-76
2021/09/20 07:00:28;;;;;;;8.35;2.88;;;11.60;99.90;;;;;;5072680;28;20028;-73
2021/09/20 07:02:54;;;;;;;7.90;3.00;;;11.70;99.90;;;;;;5072932;28;20070;-74
2021/09/20 07:05:20;;;;;;;9.02;2.92;;;11.80;99.90;;;;;;5054915;28;20016;-74
2021/09/20 07:07:45;;;;;;;9.13;3.03;;;11.90;99.90;;;;;;5055340;28;20025;-74
2021/09/20 07:10:12;;;;;;;5.80;2.67;;;12.00;99.90;;;;;;5054910;28;20072;-74
2021/09/20 07:12:39;;;;;;;7.88;3.10;;;12.10;99.90;;;;;;5072298;28;20082;-73
2021/09/20 07:15:05;;;;;;;6.65;3.00;;;12.10;99.90;;;;;;5055286;28;20024;-73
2021/09/20 07:17:31;;;;;;;4.78;2.50;;;12.20;99.90;;;;;;5073381;28;20024;-74
2021/09/20 07:19:57;;;;;;;4.93;2.40;;;12.30;99.90;;;;;;5072957;28;20020;-73
2021/09/20 07:22:23;;;;;;;7.35;3.38;;;12.30;99.90;;;;;;5053923;28;20104;-73
2021/09/20 07:24:49;;;;;;;5.78;2.88;;;12.40;99.90;;;;;;5073237;28;20086;-74
2021/09/20 07:27:15;;;;;;;8.70;2.90;;;12.40;99.90;;;;;;5073087;28;20025;-75
2021/09/20 07:29:40;;;;;;;8.02;3.42;;;12.50;99.90;;;;;;5073260;28;20020;-77
2021/09/20 07:32:06;;;;;;;10.68;3.40;;;12.60;99.90;;;;;;5072910;28;20031;-75
2021/09/20 07:34:32;;;;;;;6.68;2.83;;;12.60;99.90;;;;;;5072671;28;20119;-74
2021/09/20 07:36:58;;;;;;;5.35;2.25;;;12.70;99.90;;;;;;5072957;28;20103;-74
2021/09/20 07:39:23;;;;;;;4.57;2.10;;;12.80;99.90;;;;;;5055202;28;20043;-73
2021/09/20 07:41:49;;;;;;;5.93;2.42;;;12.90;99.90;;;;;;5054714;28;20054;-77
2021/09/20 07:44:14;;;;;;;9.75;2.83;;;12.90;99.90;;;;;;5072691;28;20016;-73
2021/09/20 07:46:40;;;;;;;4.30;1.70;;;13.00;99.90;;;;;;5069184;28;20028;-75
2021/09/20 07:49:06;;;;;;;5.07;2.58;;;13.10;99.90;;;;;;5052761;28;20426;-73
2021/09/20 07:51:31;;;;;;;7.47;2.90;;;13.20;99.90;;;;;;5038139;28;20069;-75
2021/09/20 07:53:57;;;;;;;8.32;2.90;;;13.30;99.90;;;;;;5072159;28;20103;-75
2021/09/20 07:56:23;;;;;;;5.22;2.63;;;13.40;99.90;;;;;;5072887;28;20038;-76
2021/09/20 07:58:48;;;;;;;8.52;2.50;;;13.40;99.90;;;;;;5073022;28;20027;-75
2021/09/20 08:01:14;;;;;;;4.35;2.35;;;13.60;99.90;;;;;;5053773;28;20355;-74
2021/09/20 08:03:39;;;;;;;4.90;2.78;;;13.60;99.90;;;;;;5072690;28;20036;-74
2021/09/20 08:06:07;;;;;;;4.75;2.40;;;13.70;99.90;;;;;;5072481;28;20028;-73
2021/09/20 08:08:33;;;;;;;6.45;2.38;;;13.70;99.90;;;;;;5054890;28;20040;-75
2021/09/20 08:10:58;;;;;;;6.25;2.50;;;13.80;99.90;;;;;;5072525;28;20036;-73
2021/09/20 08:13:24;;;;;;;5.18;2.35;;;13.90;99.90;;;;;;5074568;28;20062;-76
2021/09/20 08:15:50;;;;;;;6.60;3.10;;;14.00;99.90;;;;;;5076415;28;20111;-75
2021/09/20 08:18:17;;;;;;;4.30;2.30;;;14.00;99.90;;;;;;5057492;28;20020;-75
2021/09/20 08:20:45;;;;;;;5.82;2.63;;;14.20;99.90;;;;;;5076202;28;20025;-75
2021/09/20 08:23:11;;;;;;;7.70;3.17;;;14.30;99.90;;;;;;5063927;28;20059;-72
2021/09/20 08:25:37;;;;;;;4.55;2.42;;;14.30;99.90;;;;;;5076195;28;20074;-73
2021/09/20 08:28:03;;;;;;;5.13;2.30;;;14.50;99.90;;;;;;5058479;28;20021;-73
2021/09/20 08:30:29;;;;;;;5.50;2.45;;;14.70;99.90;;;;;;5076162;28;20029;-73
2021/09/20 08:32:55;;;;;;;5.25;2.42;;;14.80;99.90;;;;;;5076038;28;20063;-72
2021/09/20 08:35:21;;;;;;;5.15;2.40;;;14.90;99.90;;;;;;5076082;28;20478;-73
2021/09/20 08:37:47;;;;;;;4.88;2.05;;;15.00;99.90;;;;;;5076638;28;20023;-74
2021/09/20 08:40:15;;;;;;;5.47;2.00;;;15.10;99.90;;;;;;5076024;28;20024;-75
2021/09/20 08:42:41;;;;;;;7.63;2.85;;;15.20;99.90;;;;;;5057573;28;20035;-75
2021/09/20 08:45:10;;;;;;;7.50;2.50;;;15.30;99.90;;;;;;5058037;28;20020;-76
2021/09/20 08:47:40;;;;;;;4.15;2.13;;;15.40;99.90;;;;;;5057985;28;20066;-76
2021/09/20 08:50:07;;;;;;;5.40;2.63;;;15.50;99.90;;;;;;5076083;28;20024;-77
2021/09/20 08:52:32;;;;;;;4.90;2.80;;;15.60;99.90;;;;;;5057822;28;20029;-77
2021/09/20 08:54:58;;;;;;;5.15;2.17;;;15.70;99.90;;;;;;5058097;28;20038;-76
2021/09/20 08:57:27;;;;;;;7.38;3.00;;;15.90;99.20;;;;;;5075928;28;20401;-76
2021/09/20 08:59:53;;;;;;;3.75;2.03;;;15.90;98.00;;;;;;5076157;28;20012;-76
2021/09/20 09:02:20;;;;;;;5.28;2.13;;;15.90;97.50;;;;;;5075883;28;20065;-77
2021/09/20 09:04:46;;;;;;;6.60;2.95;;;15.90;96.50;;;;;;5057538;28;20482;-76
2021/09/20 09:07:18;;;;;;;4.05;2.17;;;16.00;97.10;;;;;;5057458;28;20079;-76
2021/09/20 09:09:49;;;;;;;5.10;2.00;;;16.20;95.50;;;;;;5057336;28;20431;-77
2021/09/20 09:12:28;;;;;;;5.22;2.38;;;16.20;94.80;;;;;;5075504;28;20028;-76
2021/09/20 09:15:00;;;;;;;7.22;2.10;;;16.30;92.80;;;;;;5057301;28;20040;-77
2021/09/20 09:17:33;;;;;;;3.72;1.98;;;16.30;93.70;;;;;;5057489;28;20065;-76
2021/09/20 09:20:06;;;;;;;3.97;2.20;;;16.50;93.00;;;;;;5057233;28;20437;-76
2021/09/20 09:22:45;;;;;;;4.75;1.38;;;16.60;93.10;;;;;;5075060;28;20121;-77
2021/09/20 09:25:13;;;;;;;;;;;16.70;91.70;;;;;;5057252;28;20020;-74
2021/09/20 09:27:40;;;;;;;4.07;1.50;;;16.90;90.80;;;;;;5057264;28;20010;-74
2021/09/20 09:30:13;;;;;;;2.33;1.15;;;17.00;90.60;;;;;;5075309;28;20032;-73
2021/09/20 09:32:41;;;;;;;3.00;1.33;;;17.10;88.20;;;;;;5057182;28;20033;-74
2021/09/20 09:35:09;;;;;;;3.80;2.20;;;17.10;87.50;;;;;;5075276;28;20120;-72
2021/09/20 09:37:39;;;;;;;5.03;1.17;;;17.00;86.70;;;;;;5074740;28;20421;-76
2021/09/20 09:40:12;;;;;;;2.50;1.25;;;16.90;87.60;;;;;;5057102;28;20013;-74
2021/09/20 09:42:39;;;;;;;5.25;1.77;;;17.00;87.50;;;;;;5074829;28;20039;-76
2021/09/20 09:45:14;;;;;;;3.00;1.25;;;17.00;85.80;;;;;;5042374;28;20120;-72
2021/09/20 09:47:40;;;;;;;2.05;1.17;;;17.10;83.90;;;;;;5054957;28;20083;-74
2021/09/20 09:50:32;;;;;;;2.40;0.93;;;17.20;83.80;;;;;;5054669;28;20029;-76
2021/09/20 09:52:57;;;;;;;1.55;0.95;;;17.30;82.10;;;;;;5071351;23;20043;-76
2021/09/20 09:55:24;;;;;;;4.93;1.52;;;17.40;80.50;;;;;;5033850;28;20033;-74
2021/09/20 09:57:51;;;;;;;2.20;0.82;;;17.50;79.20;;;;;;5033570;28;20019;-74
2021/09/20 10:00:19;;;;;;;2.47;1.00;;;17.60;77.80;;;;;;5034604;28;20022;-74
2021/09/20 10:02:50;;;;;;;1.83;0.70;;;17.70;78.80;;;;;;5081265;22;20053;-76
2021/09/20 10:05:23;;;;;;;1.73;0.85;;;17.70;78.10;;;;;;5070512;28;20024;-74
2021/09/20 10:07:51;;;;;;;2.10;1.20;;;17.90;78.00;;;;;;5074561;28;20028;-74
2021/09/20 10:10:24;;;;;;;4.93;1.20;;;18.00;75.80;;;;;;5056427;28;20419;-73
2021/09/20 10:12:53;;;;;;;1.60;0.88;;;18.10;76.20;;;;;;5074138;28;20071;-75
2021/09/20 10:15:20;;;;;;;4.32;1.20;;;18.10;75.40;;;;;;5074014;28;20029;-75
2021/09/20 10:17:46;;;;;;;2.13;0.75;;;18.20;74.50;;;;;;5105216;22;20059;-74
2021/09/20 10:20:18;;;;;;;2.35;1.08;;;18.20;73.60;;;;;;5094300;28;20017;-72
2021/09/20 10:22:44;;;;;;;2.38;1.05;;;18.30;74.50;;;;;;5094237;28;20465;-72
2021/09/20 10:25:12;;;;;;;1.95;1.05;;;18.40;71.80;;;;;;5094312;28;20035;-74
2021/09/20 10:27:38;;;;;;;2.88;1.80;;;18.50;73.10;;;;;;5094199;28;20032;-74
2021/09/20 10:30:12;;;;;;;5.05;1.48;;;18.60;72.60;;;;;;5094074;28;20028;-73
2021/09/20 10:32:40;;;;;;;3.17;1.08;;;18.80;72.80;;;;;;5094543;28;20579;-74
2021/09/20 10:35:39;;;;;;;3.50;0.75;;;18.90;72.30;;;;;;5093439;28;20536;-75
2021/09/20 10:38:20;;;;;;;3.20;1.40;;;19.00;70.80;;;;;;5094139;28;20028;-75
2021/09/20 10:41:21;;;;;;;3.35;0.85;;;19.10;69.50;;;;;;5094474;28;20024;-75
2021/09/20 10:43:54;;;;;;;4.47;1.27;;;19.00;68.40;;;;;;5093869;28;20477;-75
2021/09/20 10:46:25;;;;;;;2.13;1.20;;;18.90;69.20;;;;;;5093960;28;20028;-76
2021/09/20 10:48:55;;;;;;;3.72;0.90;;;18.90;69.60;;;;;;5094464;28;20016;-74
2021/09/20 10:51:24;;;;;;;2.00;1.02;;;19.10;69.40;;;;;;5093763;28;20024;-74
2021/09/20 10:54:11;;;;;;;2.40;1.33;;;19.10;67.40;;;;;;5093895;28;20491;-73
2021/09/20 10:56:38;;;;;;;1.95;0.90;;;19.20;68.30;;;;;;5094304;28;20028;-73
2021/09/20 10:59:09;;;;;;;2.78;0.90;;;19.30;68.00;;;;;;5093691;28;20027;-76
2021/09/20 11:01:38;;;;;;;3.50;0.85;;;19.50;68.20;;;;;;5093703;28;20024;-74
2021/09/20 11:04:37;;;;;;;1.20;0.65;;;19.70;67.20;;;;;;5093911;28;20066;-74
2021/09/20 11:07:18;;;;;;;1.65;0.70;;;19.90;66.10;;;;;;5093682;28;20047;-75
2021/09/20 11:10:03;;;;;;;1.55;0.77;;;20.20;66.40;;;;;;5094236;28;20466;-75
2021/09/20 11:12:34;;;;;;;2.72;0.73;;;20.40;63.30;;;;;;5075361;28;20069;-76
2021/09/20 11:15:03;;;;;;;1.98;0.60;;;20.40;62.60;;;;;;5075770;28;20066;-76
2021/09/20 11:17:42;;;;;;;3.35;0.85;;;20.60;64.20;;;;;;5093536;28;20489;-76
2021/09/20 11:20:27;;;;;;;2.30;1.00;;;20.80;62.70;;;;;;5093542;28;20477;-75
2021/09/20 11:23:21;;;;;;;1.38;0.82;;;21.00;62.40;;;;;;5093415;28;20024;-75
2021/09/20 11:26:07;;;;;;;2.00;1.10;;;20.90;61.70;;;;;;5075331;28;20024;-73
2021/09/20 11:28:36;;;;;;;3.45;0.80;;;20.60;61.40;;;;;;5093876;28;20062;-74
2021/09/20 11:31:02;;;;;;;1.95;1.00;;;20.20;61.40;;;;;;5093816;28;20453;-73
2021/09/20 11:33:35;;;;;;;6.47;1.50;;;19.90;62.20;;;;;;5093513;28;20028;-73
2021/09/20 11:36:19;;;;;;;2.38;0.75;;;19.60;63.20;;;;;;5093224;28;20020;-74
2021/09/20 11:38:45;;;;;;;1.67;0.82;;;19.50;64.70;;;;;;5093606;28;20390;-73
2021/09/20 11:41:24;;;;;;;4.07;1.02;;;19.70;63.80;;;;;;5075143;28;20020;-75
2021/09/20 11:43:52;;;;;;;1.90;0.88;;;20.10;64.20;;;;;;5093189;28;20035;-74
2021/09/20 11:46:20;;;;;;;1.63;1.08;;;20.50;62.20;;;;;;5093162;28;20024;-74
2021/09/20 11:48:45;;;;;;;5.05;1.27;;;21.00;62.70;;;;;;5079206;28;20111;-74
2021/09/20 11:51:11;;;;;;;4.35;0.75;;;21.40;61.50;;;;;;5079200;28;20453;-73
2021/09/20 11:53:36;;;;;;;1.58;1.08;;;21.90;58.90;;;;;;5079000;28;20094;-76
2021/09/20 11:56:02;;;;;;;1.33;0.80;;;22.10;59.20;;;;;;5097023;28;20024;-75
2021/09/20 11:58:28;;;;;;;1.90;1.13;;;22.00;58.00;;;;;;5097222;28;20024;-75
2021/09/20 12:00:53;;;;;;;2.95;1.25;;;21.60;58.30;;;;;;5097363;28;20382;-75
2021/09/20 12:03:24;;;;;;;1.70;0.93;;;21.20;56.90;;;;;;5097035;28;20398;-77
2021/09/20 12:05:50;;;;;;;1.45;0.98;;;20.80;58.70;;;;;;5097010;28;20052;-73
2021/09/20 12:08:17;;;;;;;1.80;0.80;;;20.40;59.00;;;;;;5078878;28;20066;-72
2021/09/20 12:10:55;;;;;;;3.05;1.48;;;20.10;60.70;;;;;;5096993;28;20062;-74
2021/09/20 12:13:30;;;;;;;1.38;0.90;;;19.90;62.40;;;;;;5096793;28;20028;-73
2021/09/20 12:16:03;;;;;;;3.72;1.20;;;19.90;63.30;;;;;;5096651;28;20020;-73
2021/09/20 12:18:29;;;;;;;4.28;1.48;;;20.00;62.90;;;;;;5078637;28;20028;-74
2021/09/20 12:20:58;;;;;;;5.53;1.52;;;20.30;62.60;;;;;;5096721;28;20051;-76
2021/09/20 12:23:29;;;;;;;1.27;1.13;;;20.60;62.20;;;;;;5096718;28;20105;-75
2021/09/20 12:25:57;;;;;;;4.13;1.25;;;20.70;62.20;;;;;;5096704;28;20020;-73
2021/09/20 12:28:27;;;;;;;1.55;0.82;;;20.50;60.30;;;;;;5078626;28;20028;-74
2021/09/20 12:30:54;;;;;;;;;;;20.30;60.70;;;;;;5078815;28;20024;-74
2021/09/20 12:33:20;;;;;;;2.10;1.02;;;20.10;62.00;;;;;;5097012;28;19908;-73
2021/09/20 12:35:45;;;;;;;6.43;1.88;;;20.00;63.70;;;;;;5096439;28;20032;-76
2021/09/20 12:38:15;;;;;;;2.65;1.10;;;20.00;62.10;;;;;;5099361;22;20480;-73
2021/09/20 12:40:45;;;;;;;3.42;1.52;;;19.90;61.90;;;;;;5076127;28;20478;-74
2021/09/20 12:43:26;;;;;;;1.65;0.98;;;19.80;62.70;;;;;;5076397;28;20025;-74
2021/09/20 12:45:53;;;;;;;2.25;1.10;;;19.70;62.80;;;;;;5076093;28;20029;-74
2021/09/20 12:48:35;;;;;;;1.27;0.55;;;19.70;62.60;;;;;;5076049;28;20447;-74
2021/09/20 12:51:03;;;;;;;1.75;0.90;;;19.60;63.20;;;;;;5075989;28;20029;-73